LFGL weather

Lons Le Saulnier Courlaoux Airfield
Bourgogne-Franche-Comté, France

Public forecast

Using degrees Celsius for public forecast. Weather courtesy of forecast.io.

Closest aviation weather report (METAR) to Lons Le Saulnier Courlaoux Airfield

Closest report is Dole-Tavaux Airport, 22.1 nm (40.9 km) N. Retrieved 2020/04/08 19:30 UTC (0 seconds ago):

LFGJ 081930Z AUTO 00000KT CAVOK 15/05 Q1022 NOSIG

Closest aviation forecast (TAF) to Lons Le Saulnier Courlaoux Airfield

Closest forecast is Geneva Cointrin International Airport, 37.3 nm (69.0 km) SE. Retrieved 2020/04/08 18:33 UTC (56 minutes ago):

TAF TAF LSGG 081725Z 0818/0924 05003KT CAVOK TX22/0915Z TN05/0905Z